Time;durP1;ratioP1;P1;durP2;ratioP2;P2;SDS_P1;SDS_P2;PMS_P1;PMS_P2;Temp;Humidity;BMP_temperature;BMP_pressure;BME280_temperature;BME280_humidity;BME280_pressure;Samples;Min_cycle;Max_cycle;Signal;HPM_P1;HPM_P2
2021/05/04 00:00:36;;;;;;;11.80;6.27;;;;;;;3.03;63.79;98984.91;128452;1104;62014;-81
2021/05/04 00:04:08;;;;;;;14.30;7.63;;;;;;;3.07;63.67;98981.23;127977;1108;62122;-81
2021/05/04 00:07:19;;;;;;;19.10;9.00;;;;;;;3.10;63.79;98970.53;127956;1108;61970;-81
2021/05/04 00:10:33;;;;;;;17.57;9.47;;;;;;;3.11;63.68;98966.96;127961;1108;61913;-80
2021/05/04 00:13:37;;;;;;;18.40;8.30;;;;;;;3.09;63.72;98966.18;127966;1108;62068;-80
2021/05/04 00:16:32;;;;;;;13.13;7.07;;;;;;;3.11;63.63;98967.81;128015;1108;61781;-80
2021/05/04 00:19:46;;;;;;;;;;;;;;;;;;;;;
2021/05/04 00:23:18;;;;;;;14.53;8.63;;;;;;;3.11;63.88;98959.05;127980;1108;61981;-80
2021/05/04 00:26:28;;;;;;;;;;;;;;;;;;;;;
2021/05/04 00:29:48;;;;;;;;;;;;;;;;;;;;;
2021/05/04 00:32:39;;;;;;;11.57;7.47;;;;;;;3.39;63.85;98946.37;128454;1104;61884;-81
2021/05/04 00:36:06;;;;;;;11.90;7.40;;;;;;;3.45;63.55;98946.09;128461;1105;61995;-81
2021/05/04 00:39:28;;;;;;;9.17;6.33;;;;;;;3.49;63.70;98938.88;128754;1101;62118;-84
2021/05/04 00:42:46;;;;;;;12.37;7.17;;;;;;;3.48;63.70;98929.25;128851;1098;62276;-80
2021/05/04 00:45:59;;;;;;;19.37;8.73;;;;;;;3.45;63.67;98929.40;128802;1101;61834;-82
2021/05/04 00:49:11;;;;;;;22.70;10.40;;;;;;;3.50;63.58;98925.63;128891;1098;62396;-84
2021/05/04 00:52:31;;;;;;;22.17;10.60;;;;;;;3.51;63.76;98927.34;128836;1098;62930;-81
2021/05/04 00:55:57;;;;;;;16.00;8.83;;;;;;;3.51;63.76;98921.20;128956;1098;61938;-81
2021/05/04 00:59:31;;;;;;;;;;;;;;;;;;;;;
2021/05/04 01:02:46;;;;;;;14.63;7.53;;;;;;;3.50;63.87;98917.70;128998;1098;61919;-80
2021/05/04 01:05:56;;;;;;;;;;;;;;;;;;;;;
2021/05/04 01:09:30;;;;;;;61.37;22.00;;;;;;;3.33;63.92;98903.55;129133;1098;63229;-81
2021/05/04 01:12:53;;;;;;;92.33;28.23;;;;;;;3.24;63.96;98899.53;128829;1101;62116;-80
2021/05/04 01:16:19;;;;;;;42.50;17.17;;;;;;;3.19;64.11;98893.63;129146;1098;62507;-81
2021/05/04 01:19:35;;;;;;;41.50;15.60;;;;;;;3.17;64.22;98879.62;128910;1098;61934;-81
2021/05/04 01:22:57;;;;;;;25.75;10.45;;;;;;;3.13;64.15;98881.56;129165;1098;61885;-81
2021/05/04 01:26:22;;;;;;;;;;;;;;;;;;;;;
2021/05/04 01:29:37;;;;;;;14.57;5.83;;;;;;;3.17;64.60;98871.70;128936;1098;62382;-81
2021/05/04 01:32:32;;;;;;;;;;;;;;;;;;;;;
2021/05/04 01:35:51;;;;;;;;;;;;;;;;;;;;;
2021/05/04 01:39:03;;;;;;;13.60;6.90;;;;;;;3.40;64.93;98852.19;129161;1098;61818;-82
2021/05/04 01:42:31;;;;;;;;;;;;;;;;;;;;;
2021/05/04 01:45:36;;;;;;;;;;;;;;;;;;;;;
2021/05/04 01:49:13;;;;;;;19.07;8.57;;;;;;;3.04;64.47;98847.66;129172;1098;61892;-81
2021/05/04 01:52:02;;;;;;;14.67;8.00;;;;;;;3.00;65.02;98838.18;128943;1098;61988;-81
2021/05/04 01:54:55;;;;;;;;;;;;;;;;;;;;;
2021/05/04 01:57:53;;;;;;;16.93;8.47;;;;;;;2.89;64.80;98836.02;128815;1100;62943;-80
2021/05/04 02:00:53;;;;;;;14.60;7.50;;;;;;;2.85;64.96;98818.59;128873;1098;61992;-81
2021/05/04 02:04:31;;;;;;;15.93;7.17;;;;;;;2.84;64.60;98818.67;128913;1098;61910;-81
2021/05/04 02:07:48;;;;;;;;;;;;;;;;;;;;;
2021/05/04 02:11:19;;;;;;;;;;;;;;;;;;;;;
2021/05/04 02:14:45;;;;;;;;;;;;;;;;;;;;;
2021/05/04 02:18:49;;;;;;;16.20;8.33;;;;;;;2.81;65.22;98811.77;127935;1108;62012;-81
2021/05/04 02:21:21;;;;;;;19.40;9.35;;;;;;;2.85;65.38;98809.84;127168;1111;62070;-81
2021/05/04 02:24:34;;;;;;;17.97;8.00;;;;;;;2.87;65.19;98805.37;127149;1111;62003;-81
2021/05/04 02:28:03;;;;;;;24.50;10.63;;;;;;;2.82;65.07;98808.20;127170;1111;62028;-82
2021/05/04 02:31:27;;;;;;;;;;;;;;;;;;;;;
2021/05/04 02:35:06;;;;;;;29.03;14.37;;;;;;;2.82;65.58;98799.44;127166;1111;62322;-82
2021/05/04 02:38:01;;;;;;;;;;;;;;;;;;;;;
2021/05/04 02:41:02;;;;;;;;;;;;;;;;;;;;;
2021/05/04 02:44:06;;;;;;;17.33;9.83;;;;;;;2.78;65.42;98789.94;127333;1108;62476;-81
2021/05/04 02:48:15;;;;;;;19.10;10.13;;;;;;;2.65;64.84;98779.94;128010;1107;62103;-82
2021/05/04 02:51:08;;;;;;;21.13;9.40;;;;;;;2.46;65.25;98784.30;127928;1108;62925;-81
2021/05/04 02:54:15;;;;;;;19.53;9.50;;;;;;;2.33;65.13;98778.71;128146;1105;62121;-81
2021/05/04 02:58:08;;;;;;;17.50;9.23;;;;;;;2.24;65.00;98775.63;128445;1102;61979;-81
2021/05/04 03:01:08;;;;;;;15.97;8.77;;;;;;;2.13;65.27;98770.81;128779;1101;61900;-81
2021/05/04 03:04:19;;;;;;;14.57;7.73;;;;;;;2.11;65.77;98762.13;128743;1101;63029;-81
2021/05/04 03:08:09;;;;;;;;;;;;;;;;;;;;;
2021/05/04 03:11:14;;;;;;;15.70;7.55;;;;;;;2.12;65.54;98753.30;127982;1107;62007;-81
2021/05/04 03:14:18;;;;;;;;;;;;;;;2.13;65.57;98749.73;128475;1104;61982;-80
2021/05/04 03:18:21;;;;;;;16.87;7.53;;;;;;;2.18;65.79;98750.41;128211;1105;62220;-81
2021/05/04 03:21:23;;;;;;;13.10;8.30;;;;;;;2.26;66.02;98745.65;127924;1108;62745;-86
2021/05/04 03:24:47;;;;;;;16.27;7.97;;;;;;;2.35;66.26;98734.69;127941;1108;62194;-81
2021/05/04 03:27:50;;;;;;;17.30;7.97;;;;;;;2.53;65.92;98726.91;127979;1108;61984;-81
2021/05/04 03:30:56;;;;;;;15.63;6.60;;;;;;;2.83;65.93;98727.30;127995;1107;62089;-81
2021/05/04 03:34:26;;;;;;;11.17;7.20;;;;;;;3.05;65.95;98724.52;128028;1107;61970;-80
2021/05/04 03:38:02;;;;;;;13.40;7.57;;;;;;;3.20;65.93;98705.34;127984;1107;63060;-80
2021/05/04 03:41:31;;;;;;;14.53;8.67;;;;;;;3.36;66.01;98693.09;127942;1107;62495;-81
2021/05/04 03:44:23;;;;;;;;;;;;;;;3.53;65.85;98695.77;127611;1108;61938;-80
2021/05/04 03:47:36;;;;;;;18.13;7.63;;;;;;;3.65;65.99;98696.95;128001;1107;62051;-80
2021/05/04 03:50:41;;;;;;;;;;;;;;;;;;;;;
2021/05/04 03:53:49;;;;;;;9.97;6.23;;;;;;;4.02;65.43;98685.39;128024;1108;63107;-80
2021/05/04 03:56:45;;;;;;;11.67;7.00;;;;;;;4.37;65.73;98676.55;128004;1106;61862;-79
2021/05/04 03:59:39;;;;;;;11.97;6.70;;;;;;;4.66;65.70;98675.01;128466;1104;62013;-80
2021/05/04 04:02:40;;;;;;;9.63;6.03;;;;;;;4.84;65.72;98684.59;128423;1104;62051;-80
2021/05/04 04:05:50;;;;;;;12.40;8.60;;;;;;;4.97;66.01;98668.89;128451;1104;62034;-80
2021/05/04 04:08:54;;;;;;;18.17;7.77;;;;;;;5.01;65.74;98660.67;128443;1104;62620;-81
2021/05/04 04:12:30;;;;;;;;;;;;;;;;;;;;;
2021/05/04 04:15:30;;;;;;;;;;;;;;;;;;;;;
2021/05/04 04:18:31;;;;;;;12.67;7.50;;;;;;;5.04;65.52;98655.23;128966;1098;61836;-82
2021/05/04 04:21:30;;;;;;;17.83;9.17;;;;;;;5.13;65.42;98656.49;128879;1100;61985;-81
2021/05/04 04:24:25;;;;;;;16.73;9.73;;;;;;;5.24;65.94;98650.60;128823;1098;63001;-80
2021/05/04 04:27:25;;;;;;;24.73;11.57;;;;;;;5.34;65.60;98643.82;128799;1100;62125;-81
2021/05/04 04:30:29;;;;;;;28.47;13.10;;;;;;;5.44;65.54;98639.72;128818;1100;61810;-79
2021/05/04 04:34:05;;;;;;;23.80;12.40;;;;;;;5.60;65.69;98635.25;128808;1100;62259;-80
2021/05/04 04:37:52;;;;;;;24.70;10.67;;;;;;;5.79;65.22;98629.72;128838;1100;61860;-80
2021/05/04 04:40:43;;;;;;;18.37;10.30;;;;;;;6.11;65.14;98630.47;128777;1101;62847;-80
2021/05/04 04:43:41;;;;;;;23.23;10.60;;;;;;;6.34;65.71;98626.39;128797;1101;61884;-79
2021/05/04 04:46:44;;;;;;;20.77;9.97;;;;;;;6.60;65.90;98618.61;128835;1101;61986;-80
2021/05/04 04:49:32;;;;;;;17.20;8.77;;;;;;;6.83;65.26;98610.06;129081;1098;61868;-78
2021/05/04 04:52:29;;;;;;;13.60;7.37;;;;;;;6.99;65.30;98601.95;129175;1098;61913;-79
2021/05/04 04:55:06;;;;;;;15.23;6.93;;;;;;;7.14;65.36;98593.00;128913;1099;62166;-79
2021/05/04 04:58:11;;;;;;;17.20;9.27;;;;;;;7.29;64.74;98591.98;128818;1101;61850;-80
2021/05/04 05:00:59;;;;;;;23.43;12.93;;;;;;;7.48;65.18;98582.80;128858;1100;61846;-83
2021/05/04 05:03:43;;;;;;;;;;;;;;;7.67;65.59;98587.72;128827;1101;62118;-80
2021/05/04 05:06:36;;;;;;;12.03;7.27;;;;;;;7.93;64.75;98575.31;128823;1101;61868;-79
2021/05/04 05:09:21;;;;;;;12.08;6.68;;;;;;;8.22;64.76;98567.98;128828;1101;63472;-80
2021/05/04 05:11:59;;;;;;;11.20;6.33;;;;;;;8.48;64.50;98568.83;128783;1101;61842;-80
2021/05/04 05:14:44;;;;;;;12.80;6.30;;;;;;;8.78;64.78;98555.09;128806;1100;61972;-79
2021/05/04 05:17:26;;;;;;;13.63;7.53;;;;;;;9.21;64.88;98547.47;128802;1101;62144;-80
2021/05/04 05:20:14;;;;;;;14.53;6.90;;;;;;;9.64;64.56;98541.58;128814;1101;62609;-81
2021/05/04 05:22:55;;;;;;;12.67;7.30;;;;;;;9.86;64.52;98536.30;128779;1101;62107;-81
2021/05/04 05:25:36;;;;;;;12.53;7.07;;;;;;;10.06;64.30;98533.91;128801;1101;62033;-80
2021/05/04 05:28:14;;;;;;;12.87;7.20;;;;;;;10.22;64.32;98529.05;128802;1101;62009;-80
2021/05/04 05:30:52;;;;;;;14.00;6.90;;;;;;;10.37;64.19;98522.54;128832;1101;61942;-81
2021/05/04 05:33:44;;;;;;;;;;;;;;;;;;;;;
2021/05/04 05:36:33;;;;;;;11.07;6.90;;;;;;;10.59;64.47;98515.47;128804;1101;63092;-80
2021/05/04 05:39:16;;;;;;;10.73;6.60;;;;;;;10.67;64.08;98497.84;128785;1101;62188;-80
2021/05/04 05:42:14;;;;;;;;;;;;;;;;;;;;;
2021/05/04 05:45:14;;;;;;;10.20;6.93;;;;;;;11.01;63.93;98487.08;128907;1098;61928;-81
2021/05/04 05:47:42;;;;;;;8.43;6.63;;;;;;;11.09;63.49;98482.79;128857;1098;61941;-81
2021/05/04 05:50:29;;;;;;;7.90;5.75;;;;;;;11.14;62.97;98476.22;129160;1098;61993;-80
2021/05/04 05:53:16;;;;;;;;;;;;;;;;;;;;;
2021/05/04 05:56:39;;;;;;;16.10;7.33;;;;;;;11.18;62.95;98465.13;128851;1101;62074;-81
2021/05/04 05:59:53;;;;;;;7.23;5.95;;;;;;;11.17;62.10;98452.74;128837;1099;62211;-79
2021/05/04 06:02:47;;;;;;;;;;;;;;;;;;;;;
2021/05/04 06:05:53;;;;;;;11.00;6.57;;;;;;;11.30;62.01;98440.03;128829;1100;63084;-80
2021/05/04 06:08:46;;;;;;;9.47;6.20;;;;;;;11.44;61.53;98430.84;128812;1100;61943;-79
2021/05/04 06:11:37;;;;;;;10.83;6.43;;;;;;;11.51;61.60;98428.48;129151;1098;61940;-80
2021/05/04 06:14:23;;;;;;;8.13;6.10;;;;;;;11.59;61.75;98421.52;128845;1098;61950;-80
2021/05/04 06:16:53;;;;;;;10.57;5.63;;;;;;;11.61;61.70;98429.41;128852;1098;62020;-81
2021/05/04 06:19:33;;;;;;;9.73;6.47;;;;;;;11.71;62.16;98418.77;128859;1098;62368;-81
2021/05/04 06:22:11;;;;;;;14.57;6.57;;;;;;;11.80;60.00;98415.28;128871;1098;62265;-81
2021/05/04 06:25:06;;;;;;;;;;;;;;;;;;;;;
2021/05/04 06:28:14;;;;;;;12.37;7.13;;;;;;;11.94;61.73;98420.30;128862;1098;61901;-83
2021/05/04 06:30:58;;;;;;;16.93;7.63;;;;;;;11.99;61.58;98423.42;128857;1098;62328;-82
2021/05/04 06:34:28;;;;;;;;;;;;;;;;;;;;;
2021/05/04 06:37:14;;;;;;;11.60;7.45;;;;;;;12.30;61.94;98405.49;129003;1098;62057;-83
2021/05/04 06:40:13;;;;;;;9.73;7.43;;;;;;;12.31;61.67;98407.18;129155;1098;61905;-81
2021/05/04 06:43:16;;;;;;;11.50;7.13;;;;;;;12.39;61.22;98404.66;129142;1098;62275;-81
2021/05/04 06:46:06;;;;;;;9.50;6.17;;;;;;;12.45;61.14;98411.30;128857;1100;61828;-82
2021/05/04 06:49:00;;;;;;;;;;;;;;;;;;;;;
2021/05/04 06:52:14;;;;;;;9.50;7.07;;;;;;;12.66;60.83;98411.17;128819;1100;62063;-81
2021/05/04 06:54:52;;;;;;;11.10;7.13;;;;;;;12.69;60.96;98411.75;128818;1099;61962;-81
2021/05/04 06:57:34;;;;;;;12.70;7.73;;;;;;;12.75;61.07;98414.88;128783;1101;62088;-81
2021/05/04 07:00:20;;;;;;;10.95;7.10;;;;;;;12.77;60.88;98412.89;128874;1098;62302;-83
2021/05/04 07:03:08;;;;;;;10.30;6.80;;;;;;;12.90;60.90;98413.45;128816;1101;62090;-81
2021/05/04 07:06:08;;;;;;;10.80;7.30;;;;;;;12.92;60.45;98406.98;128800;1100;61899;-81
2021/05/04 07:08:36;;;;;;;9.60;6.90;;;;;;;12.90;60.84;98400.05;128806;1100;62053;-79
2021/05/04 07:11:20;;;;;;;10.00;7.57;;;;;;;12.91;60.64;98397.23;128809;1100;61827;-81
2021/05/04 07:14:08;;;;;;;11.07;6.97;;;;;;;12.91;60.56;98388.34;128894;1098;62266;-81
2021/05/04 07:16:47;;;;;;;9.47;6.23;;;;;;;12.88;60.79;98376.09;128826;1101;62010;-80
2021/05/04 07:19:26;;;;;;;11.60;6.53;;;;;;;12.83;60.49;98375.66;128830;1101;62006;-79
2021/05/04 07:22:05;;;;;;;18.13;7.73;;;;;;;12.71;60.15;98366.91;128838;1100;61995;-80
2021/05/04 07:24:38;;;;;;;10.47;6.90;;;;;;;12.64;60.40;98364.94;128843;1100;61856;-80
2021/05/04 07:27:20;;;;;;;10.77;7.10;;;;;;;12.68;60.42;98366.36;128810;1100;62005;-81
2021/05/04 07:30:06;;;;;;;11.83;7.20;;;;;;;12.75;60.56;98356.77;128816;1100;62013;-80
2021/05/04 07:32:38;;;;;;;10.53;7.50;;;;;;;12.89;60.77;98363.53;128870;1099;61918;-82
2021/05/04 07:35:13;;;;;;;16.50;7.97;;;;;;;13.01;60.91;98356.19;128796;1101;62095;-80
2021/05/04 07:38:04;;;;;;;11.37;6.77;;;;;;;13.10;60.32;98361.52;128829;1101;62087;-80
2021/05/04 07:40:39;;;;;;;12.75;7.45;;;;;;;13.18;60.43;98355.47;128838;1100;61992;-79
2021/05/04 07:43:22;;;;;;;10.23;6.43;;;;;;;13.28;60.39;98353.63;128829;1101;62787;-80
2021/05/04 07:46:00;;;;;;;12.73;6.20;;;;;;;13.42;59.81;98339.78;128821;1101;61940;-80
2021/05/04 07:48:47;;;;;;;10.23;6.23;;;;;;;13.55;60.15;98347.50;128806;1100;61875;-80
2021/05/04 07:51:34;;;;;;;;;;;;;;;;;;;;;
2021/05/04 07:54:17;;;;;;;18.70;6.80;;;;;;;13.89;59.78;98344.25;128813;1101;61893;-81
2021/05/04 07:57:03;;;;;;;10.27;6.07;;;;;;;13.97;59.61;98333.60;128819;1100;62054;-80
2021/05/04 07:59:54;;;;;;;9.30;5.80;;;;;;;14.12;59.70;98326.72;128889;1098;61977;-80
2021/05/04 08:02:29;;;;;;;8.63;6.67;;;;;;;14.27;60.13;98314.48;128815;1101;62039;-80
2021/05/04 08:05:16;;;;;;;10.70;6.37;;;;;;;14.49;59.75;98317.75;128841;1101;61881;-79
2021/05/04 08:07:54;;;;;;;10.27;6.20;;;;;;;14.65;60.21;98301.79;128877;1098;61791;-79
2021/05/04 08:10:24;;;;;;;7.58;5.78;;;;;;;14.86;59.98;98299.61;128875;1098;62253;-81
2021/05/04 08:12:54;;;;;;;17.90;6.40;;;;;;;15.06;59.61;98288.66;128842;1098;62021;-81
2021/05/04 08:15:27;;;;;;;8.93;5.57;;;;;;;15.32;59.79;98283.27;128866;1098;61824;-81
2021/05/04 08:18:15;;;;;;;11.90;5.80;;;;;;;15.63;59.39;98275.56;128882;1099;61878;-80
2021/05/04 08:21:01;;;;;;;7.20;4.90;;;;;;;15.74;58.91;98260.98;128938;1098;61992;-81
2021/05/04 08:23:44;;;;;;;7.00;5.10;;;;;;;15.72;59.01;98257.62;128830;1100;62932;-81
2021/05/04 08:26:24;;;;;;;9.60;5.03;;;;;;;15.62;58.75;98263.95;128803;1100;62012;-81
2021/05/04 08:28:55;;;;;;;6.53;4.83;;;;;;;15.67;58.76;98255.41;128879;1098;62029;-81
2021/05/04 08:31:28;;;;;;;21.30;6.07;;;;;;;15.85;59.09;98239.16;128861;1098;61970;-81
2021/05/04 08:33:58;;;;;;;15.15;5.75;;;;;;;16.10;58.53;98240.06;129154;1098;61913;-81
2021/05/04 08:36:30;;;;;;;9.60;4.60;;;;;;;15.98;58.10;98235.99;128814;1101;61969;-81
2021/05/04 08:39:09;;;;;;;9.57;5.43;;;;;;;16.10;58.89;98219.36;128789;1101;63119;-81
2021/05/04 08:42:08;;;;;;;9.43;5.33;;;;;;;16.35;58.38;98222.92;128828;1098;61889;-81
2021/05/04 08:44:52;;;;;;;6.73;5.43;;;;;;;16.33;57.55;98218.69;129124;1098;61909;-81
2021/05/04 08:47:30;;;;;;;6.77;4.67;;;;;;;16.57;58.08;98212.47;128863;1098;61902;-81
2021/05/04 08:49:58;;;;;;;6.37;4.80;;;;;;;16.89;57.70;98211.63;128859;1098;61920;-82
2021/05/04 08:52:34;;;;;;;9.63;4.33;;;;;;;17.25;57.97;98207.51;128835;1099;62024;-83
2021/05/04 08:55:16;;;;;;;8.60;4.87;;;;;;;17.76;57.58;98196.36;128847;1101;63122;-82
2021/05/04 08:57:46;;;;;;;9.33;4.83;;;;;;;18.09;57.34;98195.14;128842;1098;62004;-82
2021/05/04 09:00:33;;;;;;;9.60;4.70;;;;;;;18.16;56.87;98186.31;128873;1098;62128;-83
2021/05/04 09:03:19;;;;;;;6.83;4.80;;;;;;;18.39;56.36;98186.33;129111;1098;62200;-83
2021/05/04 09:06:21;;;;;;;8.80;4.63;;;;;;;18.54;56.36;98173.68;128881;1098;62021;-83
2021/05/04 09:09:13;;;;;;;5.97;4.60;;;;;;;18.75;57.24;98168.43;128805;1100;61931;-84
2021/05/04 09:11:57;;;;;;;7.97;4.87;;;;;;;18.85;56.42;98166.31;128815;1101;61975;-81
2021/05/04 09:14:44;;;;;;;5.27;4.03;;;;;;;18.80;56.57;98162.48;128869;1098;62044;-83
2021/05/04 09:18:06;;;;;;;6.05;4.30;;;;;;;18.74;56.74;98155.10;128874;1098;63015;-82
2021/05/04 09:21:32;;;;;;;17.23;5.70;;;;;;;18.46;55.39;98135.91;128744;1101;62061;-83
2021/05/04 09:25:22;;;;;;;9.37;4.50;;;;;;;18.12;55.57;98141.75;128409;1104;61993;-80
2021/05/04 09:28:23;;;;;;;18.60;5.40;;;;;;;17.90;53.73;98133.48;128375;1104;62167;-81
2021/05/04 09:31:22;;;;;;;6.87;4.73;;;;;;;17.50;54.75;98129.14;128453;1104;61957;-82
2021/05/04 09:34:38;;;;;;;9.93;5.40;;;;;;;17.40;54.42;98123.95;128172;1104;62641;-82
2021/05/04 09:37:53;;;;;;;;;;;;;;;;;;;;;
2021/05/04 09:40:47;;;;;;;6.00;4.80;;;;;;;17.76;54.52;98094.59;128429;1104;61983;-81
2021/05/04 09:43:45;;;;;;;8.40;5.13;;;;;;;17.63;53.90;98083.51;128452;1104;62064;-80
2021/05/04 09:46:59;;;;;;;7.43;4.90;;;;;;;17.87;55.95;98079.80;128451;1104;62380;-79
2021/05/04 09:49:54;;;;;;;6.63;4.60;;;;;;;18.22;55.20;98070.23;128451;1104;63011;-80
2021/05/04 09:55:57;;;;;;;;;;;;;;;;;;;;;
2021/05/04 09:59:13;;;;;;;12.03;4.40;;;;;;;18.86;54.89;98053.54;128703;1101;62057;-80
2021/05/04 10:02:22;;;;;;;6.57;4.80;;;;;;;19.04;53.18;98063.98;128772;1099;61978;-80
2021/05/04 10:05:14;;;;;;;;;;;;;;;;;;;;;
2021/05/04 10:08:13;;;;;;;;;;;;;;;;;;;;;
2021/05/04 10:10:49;;;;;;;33.80;8.30;;;;;;;18.53;51.84;98039.52;128804;1101;62515;-83
2021/05/04 10:13:49;;;;;;;;;;;;;;;;;;;;;
2021/05/04 10:16:28;;;;;;;10.07;3.83;;;;;;;17.88;50.72;98032.89;128813;1100;61925;-83
2021/05/04 10:19:07;;;;;;;6.93;3.30;;;;;;;17.74;53.03;98023.70;128810;1101;62628;-83
2021/05/04 10:21:57;;;;;;;9.27;3.90;;;;;;;17.90;52.77;98011.94;128816;1098;62010;-82
2021/05/04 10:24:27;;;;;;;8.00;3.40;;;;;;;18.30;52.56;98007.16;128858;1098;61847;-81
2021/05/04 10:27:06;;;;;;;4.93;3.30;;;;;;;18.64;53.22;97998.52;128872;1098;61996;-80
2021/05/04 10:29:39;;;;;;;5.27;2.83;;;;;;;18.90;53.38;97990.77;128918;1098;61916;-80
2021/05/04 10:32:12;;;;;;;5.67;3.60;;;;;;;19.05;52.68;97982.61;129169;1098;62012;-80
2021/05/04 10:34:47;;;;;;;20.47;4.90;;;;;;;18.89;49.96;97972.00;128855;1099;61990;-81
2021/05/04 10:37:35;;;;;;;7.67;3.60;;;;;;;18.74;49.06;97965.78;128900;1098;61921;-83
2021/05/04 10:40:21;;;;;;;7.50;3.50;;;;;;;18.66;49.81;97945.06;129155;1098;61913;-83
2021/05/04 10:42:51;;;;;;;7.93;3.20;;;;;;;18.70;51.27;97948.25;128889;1100;62390;-81
2021/05/04 10:45:40;;;;;;;19.23;3.97;;;;;;;18.72;49.89;97955.16;128840;1100;62576;-81
2021/05/04 10:48:24;;;;;;;9.03;2.33;;;;;;;18.67;48.78;97954.88;128909;1098;61971;-81
2021/05/04 10:51:13;;;;;;;16.87;3.33;;;;;;;18.44;50.38;97925.22;128876;1100;62443;-82
2021/05/04 10:54:15;;;;;;;8.83;2.60;;;;;;;18.63;49.92;97938.16;128848;1099;62353;-82
2021/05/04 10:56:55;;;;;;;9.70;2.80;;;;;;;18.80;50.10;97943.39;129136;1098;62204;-81
2021/05/04 10:59:38;;;;;;;9.70;2.63;;;;;;;18.85;49.73;97932.84;128836;1098;61991;-81
2021/05/04 11:02:33;;;;;;;7.93;2.50;;;;;;;18.94;50.25;97920.88;129126;1098;62181;-81
2021/05/04 11:05:33;;;;;;;4.13;2.38;;;;;;;19.22;51.15;97936.38;128899;1098;62366;-82
2021/05/04 11:08:06;;;;;;;4.13;2.17;;;;;;;19.43;49.14;97920.95;128842;1098;62015;-82
2021/05/04 11:10:33;;;;;;;15.60;2.33;;;;;;;19.42;48.10;97915.75;128901;1098;62909;-81
2021/05/04 11:13:03;;;;;;;7.87;3.30;;;;;;;19.47;47.71;97915.14;128860;1098;62379;-81
2021/05/04 11:15:50;;;;;;;5.87;2.20;;;;;;;19.55;49.85;97913.16;128829;1098;62877;-82
2021/05/04 11:19:03;;;;;;;10.33;2.53;;;;;;;19.70;48.41;97918.51;129071;1098;61867;-84
2021/05/04 11:22:20;;;;;;;;;;;;;;;;;;;;;
2021/05/04 11:25:00;;;;;;;7.23;2.30;;;;;;;19.70;48.68;97923.92;128847;1100;61975;-82
2021/05/04 11:27:41;;;;;;;3.90;2.03;;;;;;;19.74;49.18;97917.09;128860;1098;63096;-81
2021/05/04 11:30:32;;;;;;;15.65;2.30;;;;;;;19.79;48.19;97925.47;128832;1098;62073;-83
2021/05/04 11:33:22;;;;;;;8.47;2.47;;;;;;;19.79;48.71;97908.38;128848;1099;62232;-81
2021/05/04 11:36:32;;;;;;;4.10;2.10;;;;;;;19.66;46.54;97928.91;129037;1098;61934;-82
2021/05/04 11:39:38;;;;;;;9.37;2.70;;;;;;;19.72;47.92;97908.30;128878;1099;61743;-82
2021/05/04 11:42:05;;;;;;;6.40;2.50;;;;;;;20.05;48.91;97907.73;128862;1098;62959;-81
2021/05/04 11:44:40;;;;;;;11.90;2.90;;;;;;;20.01;48.05;97903.73;128855;1098;62020;-81
2021/05/04 11:47:27;;;;;;;6.50;2.73;;;;;;;19.92;48.21;97905.77;128888;1098;61815;-81
2021/05/04 11:50:28;;;;;;;20.13;3.80;;;;;;;19.62;46.77;97913.24;128880;1098;61899;-81
2021/05/04 11:53:08;;;;;;;11.27;3.47;;;;;;;19.04;44.60;97921.41;129145;1098;61816;-82
2021/05/04 11:55:53;;;;;;;12.10;3.13;;;;;;;18.66;46.37;97906.38;128875;1098;63180;-81
2021/05/04 11:58:35;;;;;;;8.90;3.75;;;;;;;18.33;46.27;97902.23;128869;1098;62018;-81
2021/05/04 12:01:06;;;;;;;6.13;2.77;;;;;;;18.12;47.40;97896.72;129146;1098;62012;-80
2021/05/04 12:03:34;;;;;;;7.37;3.10;;;;;;;18.05;47.65;97896.63;128851;1098;61889;-82
2021/05/04 12:06:05;;;;;;;8.97;2.90;;;;;;;17.89;47.78;97896.83;128881;1099;61842;-81
2021/05/04 12:08:39;;;;;;;9.63;3.00;;;;;;;17.73;47.62;97900.52;128860;1098;63179;-80
2021/05/04 12:11:06;;;;;;;6.97;2.80;;;;;;;17.53;47.15;97892.07;128868;1098;62161;-82
2021/05/04 12:13:37;;;;;;;8.53;2.87;;;;;;;17.31;46.74;97887.56;128922;1098;62028;-81
2021/05/04 12:16:12;;;;;;;7.90;3.27;;;;;;;17.07;46.83;97882.36;128865;1098;62070;-80
2021/05/04 12:18:49;;;;;;;10.80;2.67;;;;;;;16.97;48.09;97885.28;128840;1098;61912;-82
2021/05/04 12:21:31;;;;;;;12.00;3.67;;;;;;;16.88;47.05;97883.67;128873;1098;64177;-81
2021/05/04 12:24:07;;;;;;;11.67;3.37;;;;;;;16.85;47.31;97889.41;128820;1098;62034;-83
2021/05/04 12:26:39;;;;;;;7.90;2.40;;;;;;;16.78;47.87;97878.49;128856;1098;62014;-81
2021/05/04 12:29:14;;;;;;;8.43;3.53;;;;;;;16.65;47.87;97875.52;128843;1098;61953;-81
2021/05/04 12:31:51;;;;;;;9.33;2.57;;;;;;;16.53;47.87;97871.54;128862;1098;62052;-82
2021/05/04 12:34:38;;;;;;;;;;;;;;;;;;;;;
2021/05/04 12:37:19;;;;;;;7.17;3.40;;;;;;;16.50;47.59;97864.66;128827;1098;62072;-81
2021/05/04 12:39:49;;;;;;;8.17;3.33;;;;;;;16.38;47.83;97863.38;128897;1099;62072;-83
2021/05/04 12:42:25;;;;;;;6.83;2.90;;;;;;;16.27;47.76;97858.38;128793;1101;62028;-82
2021/05/04 12:45:17;;;;;;;3.87;2.50;;;;;;;16.26;48.14;97860.23;128792;1101;61963;-83
2021/05/04 12:48:11;;;;;;;;;;;;;;;;;;;;;
2021/05/04 12:50:38;;;;;;;8.67;2.63;;;;;;;16.17;46.68;97853.21;129105;1098;62330;-82
2021/05/04 12:53:38;;;;;;;5.43;3.47;;;;;;;16.07;47.48;97850.71;128896;1098;62057;-83
2021/05/04 12:56:33;;;;;;;7.80;3.73;;;;;;;16.03;47.55;97845.84;128874;1098;61951;-83
2021/05/04 12:59:49;;;;;;;5.57;3.07;;;;;;;15.97;47.01;97838.46;128864;1098;62021;-82
2021/05/04 13:02:19;;;;;;;5.00;2.70;;;;;;;15.89;46.86;97826.71;129085;1098;61927;-80
2021/05/04 13:05:00;;;;;;;4.57;2.93;;;;;;;15.86;47.56;97824.38;128833;1098;62222;-82
2021/05/04 13:07:43;;;;;;;5.13;2.50;;;;;;;15.89;46.41;97824.02;128913;1098;62069;-82
2021/05/04 13:10:29;;;;;;;4.87;2.90;;;;;;;15.92;46.95;97815.61;128910;1098;62010;-81
2021/05/04 13:30:02;;;;;;;6.50;3.20;;;;;;;16.38;46.37;97813.02;128786;1101;62742;-82
2021/05/04 13:32:35;;;;;;;19.43;3.47;;;;;;;16.46;46.76;97810.27;128508;1101;62158;-80
2021/05/04 13:35:08;;;;;;;5.27;3.30;;;;;;;16.51;46.18;97808.91;128519;1102;62683;-81
2021/05/04 13:48:40;;;;;;;8.00;3.30;;;;;;;16.63;46.30;97794.00;128739;1101;62477;-81
2021/05/04 13:51:07;;;;;;;6.07;3.60;;;;;;;16.69;46.27;97783.34;128470;1101;62065;-82
2021/05/04 13:53:40;;;;;;;6.03;3.40;;;;;;;16.71;45.96;97792.11;128750;1101;62015;-81
2021/05/04 13:56:12;;;;;;;9.17;4.37;;;;;;;16.78;46.06;97794.92;128745;1101;62506;-80
2021/05/04 13:58:39;;;;;;;5.17;3.37;;;;;;;16.90;45.48;97784.55;128528;1102;62071;-80
2021/05/04 14:01:19;;;;;;;16.13;4.67;;;;;;;16.90;45.01;97782.69;128634;1101;61966;-81
2021/05/04 14:28:16;;;;;;;10.27;3.40;;;;;;;16.99;45.33;97778.92;128002;1105;62066;-81
2021/05/04 14:30:43;;;;;;;11.33;3.37;;;;;;;17.01;45.24;97781.42;128453;1104;61996;-82
2021/05/04 14:33:38;;;;;;;7.80;3.63;;;;;;;17.11;45.31;97778.45;128534;1103;61965;-81
2021/05/04 14:36:40;;;;;;;11.57;4.00;;;;;;;17.21;44.95;97787.14;128524;1101;62066;-80
2021/05/04 14:41:15;;;;;;;14.80;4.60;;;;;;;17.28;44.76;97783.52;128553;1101;63058;-80
2021/05/04 14:57:10;;;;;;;9.30;3.90;;;;;;;18.12;44.00;97772.44;129130;1098;62002;-80
2021/05/04 14:59:47;;;;;;;11.70;3.70;;;;;;;18.01;44.79;97760.28;128893;1098;61887;-78
2021/05/04 15:02:16;;;;;;;10.47;4.67;;;;;;;17.92;44.31;97763.27;128890;1098;61923;-78
2021/05/04 15:05:01;;;;;;;9.50;3.87;;;;;;;18.10;44.47;97753.73;128916;1099;61913;-80
2021/05/04 15:07:38;;;;;;;6.07;3.13;;;;;;;18.20;44.81;97747.20;128875;1098;63035;-79
2021/05/04 15:10:06;;;;;;;12.50;3.87;;;;;;;18.24;44.31;97743.91;128859;1098;61956;-80
2021/05/04 15:12:33;;;;;;;9.37;3.40;;;;;;;18.07;43.98;97748.72;128842;1099;62557;-80
2021/05/04 15:15:03;;;;;;;7.40;3.43;;;;;;;17.93;44.72;97746.02;128857;1099;61986;-78
2021/05/04 15:22:52;;;;;;;14.47;4.37;;;;;;;17.89;44.41;97737.48;128863;1099;62016;-81
2021/05/04 15:25:27;;;;;;;8.70;3.87;;;;;;;18.21;44.00;97729.95;129051;1098;61932;-81
2021/05/04 15:28:05;;;;;;;10.07;4.03;;;;;;;18.76;44.42;97717.61;128868;1099;62036;-80
2021/05/04 15:30:33;;;;;;;12.13;4.00;;;;;;;19.04;43.67;97715.78;128834;1099;61974;-80
2021/05/04 15:33:09;;;;;;;11.53;3.60;;;;;;;19.40;43.30;97720.16;129092;1098;62094;-81
2021/05/04 15:35:43;;;;;;;8.40;2.70;;;;;;;19.47;39.54;97699.41;128860;1098;63234;-79
2021/05/04 15:38:14;;;;;;;14.80;3.50;;;;;;;19.18;41.80;97712.13;128858;1098;62076;-82